createdAt,value
2023-05-06T00:01:15.588Z,101807.75
2023-05-06T00:03:42.694Z,101814.31
2023-05-06T00:06:09.654Z,101819.84
2023-05-06T00:08:36.658Z,101819.34
2023-05-06T00:11:03.493Z,101817.16
2023-05-06T00:13:30.611Z,101811.59
2023-05-06T00:15:57.527Z,101810.09
2023-05-06T00:18:24.361Z,101810.09
2023-05-06T00:20:51.272Z,101808.47
2023-05-06T00:23:18.098Z,101805.28
2023-05-06T00:25:44.966Z,101809.16
2023-05-06T00:28:11.777Z,101801.50
2023-05-06T00:30:39.067Z,101798.81
2023-05-06T00:33:05.928Z,101798.06
2023-05-06T00:35:33.505Z,101803.84
2023-05-06T00:38:12.970Z,101801.06
2023-05-06T00:40:40.170Z,101804.34
2023-05-06T00:43:07.212Z,101800.41
2023-05-06T00:45:34.279Z,101796.59
2023-05-06T00:48:01.754Z,101793.72
2023-05-06T00:50:29.975Z,101795.81
2023-05-06T00:52:59.244Z,101788.75
2023-05-06T00:55:26.518Z,101786.66
2023-05-06T00:57:57.300Z,101789.66
2023-05-06T01:00:24.200Z,101783.72
2023-05-06T01:02:51.888Z,101785.06
2023-05-06T01:05:22.464Z,101788.41
2023-05-06T01:08:06.752Z,101786.88
2023-05-06T01:10:39.211Z,101791.41
2023-05-06T01:13:32.294Z,101792.34
2023-05-06T01:16:01.300Z,101798.25
2023-05-06T01:18:32.737Z,101790.97
2023-05-06T01:21:00.646Z,101781.03
2023-05-06T01:23:27.527Z,101788.88
2023-05-06T01:25:54.368Z,101795.09
2023-05-06T01:28:21.176Z,101802.00
2023-05-06T01:31:09.409Z,101789.66
2023-05-06T01:33:58.714Z,101786.44
2023-05-06T01:36:41.193Z,101783.91
2023-05-06T01:39:20.600Z,101791.44
2023-05-06T01:41:51.886Z,101792.88
2023-05-06T01:44:22.382Z,101786.41
2023-05-06T01:46:50.119Z,101788.84
2023-05-06T01:49:19.606Z,101799.94
2023-05-06T01:51:50.566Z,101800.78
2023-05-06T01:54:17.995Z,101802.16
2023-05-06T01:56:45.085Z,101806.25
2023-05-06T01:59:12.084Z,101799.34
2023-05-06T02:01:39.017Z,101800.25
2023-05-06T02:04:07.510Z,101797.31
2023-05-06T02:06:34.548Z,101787.47
2023-05-06T02:09:01.435Z,101792.94
2023-05-06T02:11:31.261Z,101802.69
2023-05-06T02:14:03.289Z,101799.91
2023-05-06T02:16:33.088Z,101808.56
2023-05-06T02:19:00.072Z,101802.47
2023-05-06T02:21:27.996Z,101804.31
2023-05-06T02:23:54.966Z,101800.59
2023-05-06T02:26:21.829Z,101802.81
2023-05-06T02:28:48.680Z,101803.03
2023-05-06T02:31:16.406Z,101798.78
2023-05-06T02:33:45.242Z,101796.69
2023-05-06T02:36:12.217Z,101795.59
2023-05-06T02:38:39.021Z,101792.53
2023-05-06T02:41:06.035Z,101797.66
2023-05-06T02:43:33.051Z,101799.78
2023-05-06T02:45:59.992Z,101790.69
2023-05-06T02:48:26.917Z,101792.31
2023-05-06T02:50:53.741Z,101795.56
2023-05-06T02:53:20.655Z,101796.94
2023-05-06T02:55:47.494Z,101794.81
2023-05-06T02:58:14.523Z,101790.25
2023-05-06T03:00:41.431Z,101785.75
2023-05-06T03:03:10.077Z,101782.53
2023-05-06T03:05:37.050Z,101785.50
2023-05-06T03:08:04.049Z,101789.72
2023-05-06T03:10:31.561Z,101786.47
2023-05-06T03:12:59.451Z,101786.81
2023-05-06T03:15:28.465Z,101786.03
2023-05-06T03:17:55.589Z,101782.53
2023-05-06T03:20:23.141Z,101788.47
2023-05-06T03:22:53.912Z,101782.03
2023-05-06T03:25:21.895Z,101781.25
2023-05-06T03:27:49.356Z,101772.41
2023-05-06T03:30:21.939Z,101779.88
2023-05-06T03:32:51.192Z,101781.97
2023-05-06T03:35:25.000Z,101780.66
2023-05-06T03:37:55.825Z,101781.53
2023-05-06T03:40:24.888Z,101785.22
2023-05-06T03:42:52.112Z,101783.66
2023-05-06T03:45:19.917Z,101790.88
2023-05-06T03:47:48.356Z,101786.53
2023-05-06T03:50:17.288Z,101785.22
2023-05-06T03:52:44.323Z,101778.50
2023-05-06T03:55:11.882Z,101782.63
2023-05-06T03:57:39.413Z,101775.34
2023-05-06T04:00:08.012Z,101775.13
2023-05-06T04:02:43.031Z,101768.22
2023-05-06T04:05:14.818Z,101773.88
2023-05-06T04:07:41.783Z,101782.34
2023-05-06T04:10:09.245Z,101771.13
2023-05-06T04:12:36.834Z,101779.75
2023-05-06T04:15:04.360Z,101783.22
2023-05-06T04:17:31.577Z,101788.59
2023-05-06T04:19:58.545Z,101787.53
2023-05-06T04:22:25.459Z,101795.84
2023-05-06T04:24:53.190Z,101804.34
2023-05-06T04:27:20.220Z,101794.69
2023-05-06T04:29:47.111Z,101795.16
2023-05-06T04:32:14.765Z,101808.50
2023-05-06T04:34:41.751Z,101817.84
2023-05-06T04:37:11.034Z,101826.94
2023-05-06T04:39:48.937Z,101829.47
2023-05-06T04:42:16.975Z,101826.53
2023-05-06T04:44:51.656Z,101824.34
2023-05-06T04:47:22.921Z,101831.50
2023-05-06T04:49:51.903Z,101834.47
2023-05-06T04:52:19.245Z,101830.72
2023-05-06T04:54:46.108Z,101830.66
2023-05-06T04:57:13.501Z,101840.81
2023-05-06T04:59:43.521Z,101837.91
2023-05-06T05:02:10.378Z,101826.25
2023-05-06T05:04:37.944Z,101833.75
2023-05-06T05:07:05.582Z,101829.53
2023-05-06T05:09:32.474Z,101838.84
2023-05-06T05:12:01.892Z,101839.91
2023-05-06T05:14:30.828Z,101842.00
2023-05-06T05:16:58.864Z,101847.16
2023-05-06T05:19:25.922Z,101846.50
2023-05-06T05:21:52.979Z,101853.59
2023-05-06T05:24:20.028Z,101857.63
2023-05-06T05:26:46.893Z,101850.16
2023-05-06T05:29:14.839Z,101859.66
2023-05-06T05:31:42.414Z,101853.84
2023-05-06T05:34:09.350Z,101859.06
2023-05-06T05:36:36.954Z,101858.22
2023-05-06T05:39:07.236Z,101851.59
2023-05-06T05:41:37.306Z,101852.69
2023-05-06T05:44:04.452Z,101858.66
2023-05-06T05:46:32.046Z,101855.97
2023-05-06T05:49:00.053Z,101854.81
2023-05-06T05:51:27.016Z,101872.00
2023-05-06T05:53:54.654Z,101870.13
2023-05-06T05:56:23.749Z,101875.16
2023-05-06T05:58:50.637Z,101868.56
2023-05-06T06:01:17.983Z,101882.09
2023-05-06T06:03:46.276Z,101876.00
2023-05-06T06:06:15.720Z,101876.78
2023-05-06T06:08:43.637Z,101879.47
2023-05-06T06:11:12.284Z,101886.69
2023-05-06T06:13:41.471Z,101881.31
2023-05-06T06:16:08.687Z,101878.78
2023-05-06T06:18:35.513Z,101891.84
2023-05-06T06:21:02.987Z,101887.31
2023-05-06T06:23:29.843Z,101889.72
2023-05-06T06:25:56.715Z,101875.84
2023-05-06T06:28:23.647Z,101884.84
2023-05-06T06:30:50.960Z,101884.25
2023-05-06T06:33:17.806Z,101888.13
2023-05-06T06:35:44.655Z,101887.25
2023-05-06T06:38:11.631Z,101896.19
2023-05-06T06:40:38.436Z,101901.47
2023-05-06T06:43:05.208Z,101908.31
2023-05-06T06:45:49.666Z,101897.91
2023-05-06T06:48:16.790Z,101896.41
2023-05-06T06:50:43.837Z,101901.53
2023-05-06T06:53:11.272Z,101904.16
2023-05-06T06:55:38.071Z,101900.69
2023-05-06T06:58:04.885Z,101897.22
2023-05-06T07:00:31.762Z,101900.06
2023-05-06T07:02:58.638Z,101904.22
2023-05-06T07:05:27.119Z,101901.41
2023-05-06T07:07:54.585Z,101898.06
2023-05-06T07:10:22.025Z,101902.66
2023-05-06T07:12:48.890Z,101908.72
2023-05-06T07:15:15.767Z,101909.19
2023-05-06T07:17:42.653Z,101915.56
2023-05-06T07:20:10.158Z,101913.06
2023-05-06T07:22:37.248Z,101915.22
2023-05-06T07:25:04.281Z,101912.75
2023-05-06T07:27:31.235Z,101915.41
2023-05-06T07:29:58.151Z,101913.63
2023-05-06T07:32:25.024Z,101921.59
2023-05-06T07:34:52.023Z,101925.50
2023-05-06T07:37:18.793Z,101923.84
2023-05-06T07:39:45.704Z,101931.47
2023-05-06T07:42:13.318Z,101927.56
2023-05-06T07:44:40.429Z,101931.56
2023-05-06T07:47:07.459Z,101925.06
2023-05-06T07:49:35.303Z,101929.34
2023-05-06T07:52:03.701Z,101931.09
2023-05-06T07:54:31.963Z,101927.13
2023-05-06T07:56:58.891Z,101935.19
2023-05-06T07:59:25.761Z,101939.03
2023-05-06T08:01:52.640Z,101947.09
2023-05-06T08:04:19.586Z,101943.66
2023-05-06T08:06:46.438Z,101945.72
2023-05-06T08:09:22.092Z,101949.94
2023-05-06T08:11:50.923Z,101952.16
2023-05-06T08:14:17.827Z,101956.13
2023-05-06T08:16:44.724Z,101946.03
2023-05-06T08:19:11.697Z,101947.31
2023-05-06T08:21:38.555Z,101951.72
2023-05-06T08:24:05.836Z,101953.59
2023-05-06T08:26:32.640Z,101964.69
2023-05-06T08:28:59.781Z,101959.81
2023-05-06T08:31:27.030Z,101955.03
2023-05-06T08:33:54.829Z,101952.25
2023-05-06T08:36:22.602Z,101961.81
2023-05-06T08:38:51.073Z,101969.53
2023-05-06T08:41:20.024Z,101964.44
2023-05-06T08:43:49.155Z,101964.91
2023-05-06T08:46:16.904Z,101957.19
2023-05-06T08:48:43.831Z,101964.25
2023-05-06T08:51:15.201Z,101965.50
2023-05-06T08:53:48.758Z,101959.84
2023-05-06T08:56:16.960Z,101957.00
2023-05-06T08:58:46.901Z,101957.03
2023-05-06T09:01:15.149Z,101963.41
2023-05-06T09:03:42.084Z,101958.78
2023-05-06T09:06:09.153Z,101959.75
2023-05-06T09:08:36.497Z,101957.81
2023-05-06T09:11:03.324Z,101957.78
2023-05-06T09:13:30.399Z,101951.25
2023-05-06T09:15:57.300Z,101950.88
2023-05-06T09:18:24.147Z,101949.28
2023-05-06T09:20:51.181Z,101958.59
2023-05-06T09:23:18.505Z,101955.13
2023-05-06T09:25:47.016Z,101944.16
2023-05-06T09:28:14.634Z,101949.72
2023-05-06T09:30:44.088Z,101946.97
2023-05-06T09:33:11.793Z,101950.50
2023-05-06T09:35:40.518Z,101962.06
2023-05-06T09:38:08.104Z,101942.38
2023-05-06T09:40:36.569Z,101949.16
2023-05-06T09:43:04.401Z,101947.53
2023-05-06T09:45:31.598Z,101949.16
2023-05-06T09:47:59.194Z,101945.56
2023-05-06T09:50:26.957Z,101940.44
2023-05-06T09:52:55.880Z,101942.88
2023-05-06T09:55:26.896Z,101945.13
2023-05-06T09:57:55.361Z,101938.41
2023-05-06T10:00:28.309Z,101941.28
2023-05-06T10:02:55.640Z,101941.22
2023-05-06T10:05:25.744Z,101941.91
2023-05-06T10:07:53.715Z,101937.69
2023-05-06T10:10:22.315Z,101936.22
2023-05-06T10:12:50.819Z,101936.31
2023-05-06T10:15:17.703Z,101935.31
2023-05-06T10:17:48.257Z,101932.69
2023-05-06T10:20:16.658Z,101929.47
2023-05-06T10:23:02.022Z,101924.75
2023-05-06T10:25:42.684Z,101932.66
2023-05-06T10:28:14.239Z,101920.19
2023-05-06T10:30:53.899Z,101918.78
2023-05-06T10:33:23.946Z,101916.69
2023-05-06T10:36:06.188Z,101924.03
2023-05-06T10:38:36.361Z,101931.28
2023-05-06T10:41:04.128Z,101924.84
2023-05-06T10:43:33.235Z,101928.63
2023-05-06T10:46:17.151Z,101922.81
2023-05-06T10:49:06.502Z,101929.72
2023-05-06T10:51:33.893Z,101934.03
2023-05-06T10:54:10.702Z,101924.19
2023-05-06T10:56:38.522Z,101916.88
2023-05-06T10:59:10.186Z,101915.91
2023-05-06T11:01:41.894Z,101914.88
2023-05-06T11:04:10.852Z,101916.06
2023-05-06T11:06:39.476Z,101912.47
2023-05-06T11:09:07.140Z,101920.22
2023-05-06T11:11:49.788Z,101914.91
2023-05-06T11:14:31.658Z,101912.84
2023-05-06T11:16:59.792Z,101915.81
2023-05-06T11:19:27.865Z,101921.97
2023-05-06T11:21:57.700Z,101917.16
2023-05-06T11:24:41.678Z,101916.13
2023-05-06T11:27:09.648Z,101912.94
2023-05-06T11:29:37.238Z,101910.16
2023-05-06T11:32:05.921Z,101915.94
2023-05-06T11:34:33.113Z,101902.34
2023-05-06T11:37:03.422Z,101913.34
2023-05-06T11:39:36.711Z,101902.06
2023-05-06T11:42:07.676Z,101890.66
2023-05-06T11:44:39.190Z,101890.72
2023-05-06T11:47:08.107Z,101887.56
2023-05-06T11:49:43.627Z,101894.97
2023-05-06T11:52:11.989Z,101889.22
2023-05-06T11:54:41.202Z,101894.66
2023-05-06T11:57:08.379Z,101897.72
2023-05-06T11:59:37.573Z,101900.22
2023-05-06T12:02:09.722Z,101890.56
2023-05-06T12:04:45.019Z,101898.09
2023-05-06T12:07:13.595Z,101894.03
2023-05-06T12:09:50.236Z,101888.47
2023-05-06T12:12:22.757Z,101889.00
2023-05-06T12:14:50.727Z,101894.75
2023-05-06T12:17:17.933Z,101891.28
2023-05-06T12:19:46.721Z,101895.88
2023-05-06T12:22:24.948Z,101904.13
2023-05-06T12:24:51.899Z,101892.53
2023-05-06T12:27:31.974Z,101890.28
2023-05-06T12:29:58.805Z,101888.34
2023-05-06T12:32:25.649Z,101899.53
2023-05-06T12:34:52.742Z,101890.09
2023-05-06T12:37:27.388Z,101890.25
2023-05-06T12:39:56.357Z,101900.31
2023-05-06T12:42:25.206Z,101890.81
2023-05-06T12:44:52.125Z,101887.78
2023-05-06T12:47:20.094Z,101897.19
2023-05-06T12:49:47.638Z,101888.28
2023-05-06T12:52:14.990Z,101893.31
2023-05-06T12:54:41.961Z,101890.75
2023-05-06T12:57:08.830Z,101880.03
2023-05-06T12:59:36.834Z,101891.13
2023-05-06T13:02:04.830Z,101882.50
2023-05-06T13:04:31.864Z,101884.44
2023-05-06T13:06:58.987Z,101886.91
2023-05-06T13:09:26.121Z,101883.81
2023-05-06T13:11:53.319Z,101877.81
2023-05-06T13:14:20.111Z,101888.38
2023-05-06T13:16:47.138Z,101893.41
2023-05-06T13:19:30.811Z,101887.91
2023-05-06T13:21:59.101Z,101892.84
2023-05-06T13:24:25.941Z,101895.84
2023-05-06T13:26:52.877Z,101902.25
2023-05-06T13:29:19.712Z,101889.28
2023-05-06T13:31:46.609Z,101894.13
2023-05-06T13:34:13.394Z,101886.47
2023-05-06T13:36:40.329Z,101891.19
2023-05-06T13:39:07.316Z,101877.97
2023-05-06T13:41:34.649Z,101876.53
2023-05-06T13:44:01.481Z,101874.19
2023-05-06T13:46:28.374Z,101875.19
2023-05-06T13:48:55.150Z,101864.59
2023-05-06T13:51:21.989Z,101865.16
2023-05-06T13:53:48.757Z,101862.69
2023-05-06T13:56:15.574Z,101866.94
2023-05-06T13:58:42.358Z,101861.91
2023-05-06T14:01:09.228Z,101855.13
2023-05-06T14:03:36.134Z,101856.00
2023-05-06T14:06:03.206Z,101855.97
2023-05-06T14:08:30.084Z,101862.44
2023-05-06T14:10:56.893Z,101857.56
2023-05-06T14:13:23.767Z,101860.84
2023-05-06T14:15:50.860Z,101858.47
2023-05-06T14:18:18.176Z,101860.38
2023-05-06T14:20:44.982Z,101856.69
2023-05-06T14:23:11.889Z,101856.03
2023-05-06T14:25:38.890Z,101854.09
2023-05-06T14:28:05.944Z,101856.16
2023-05-06T14:30:34.420Z,101850.28
2023-05-06T14:33:01.378Z,101855.16
2023-05-06T14:35:28.304Z,101852.84
2023-05-06T14:37:55.409Z,101854.19
2023-05-06T14:40:22.347Z,101862.22
2023-05-06T14:42:49.670Z,101860.88
2023-05-06T14:45:16.581Z,101858.59
2023-05-06T14:47:43.573Z,101857.09
2023-05-06T14:50:11.095Z,101866.16
2023-05-06T14:52:39.898Z,101860.72
2023-05-06T14:55:09.048Z,101871.03
2023-05-06T14:57:36.247Z,101858.56
2023-05-06T15:00:05.228Z,101860.50
2023-05-06T15:02:32.729Z,101865.72
2023-05-06T15:05:00.973Z,101865.19
2023-05-06T15:07:31.043Z,101865.81
2023-05-06T15:09:57.826Z,101862.69
2023-05-06T15:12:24.638Z,101858.91
2023-05-06T15:14:51.515Z,101859.75
2023-05-06T15:17:18.351Z,101859.28
2023-05-06T15:19:45.174Z,101862.50
2023-05-06T15:22:12.002Z,101863.44
2023-05-06T15:24:38.930Z,101864.41
2023-05-06T15:27:06.009Z,101870.97
2023-05-06T15:29:32.835Z,101874.97
2023-05-06T15:31:59.773Z,101866.28
2023-05-06T15:34:26.668Z,101861.09
2023-05-06T15:36:53.961Z,101874.09
2023-05-06T15:39:21.062Z,101877.97
2023-05-06T15:41:48.289Z,101874.88
2023-05-06T15:44:16.419Z,101878.03
2023-05-06T15:46:43.643Z,101896.75
2023-05-06T15:49:42.479Z,101899.63
2023-05-06T15:52:00.571Z,101886.09
2023-05-06T15:54:28.890Z,101895.78
2023-05-06T15:56:56.708Z,101905.81
2023-05-06T15:59:23.874Z,101903.72
2023-05-06T16:02:25.593Z,68264.22
2023-05-06T16:04:38.092Z,68264.22
2023-05-06T16:07:05.238Z,68264.22
2023-05-06T16:09:32.053Z,68264.22
2023-05-06T16:11:59.115Z,68264.22
2023-05-06T16:14:25.947Z,68264.22
2023-05-06T16:16:52.849Z,68264.22
2023-05-06T16:19:19.728Z,68264.22
2023-05-06T16:21:46.660Z,68264.22
2023-05-06T16:24:13.495Z,68264.22
2023-05-06T16:26:40.773Z,68264.22
2023-05-06T16:29:07.626Z,68264.22
2023-05-06T16:31:34.676Z,68264.22
2023-05-06T16:34:01.673Z,68264.22
2023-05-06T16:36:28.850Z,68264.22
2023-05-06T16:38:55.744Z,68264.22
2023-05-06T16:41:22.556Z,68264.22
2023-05-06T16:43:49.380Z,68264.22
2023-05-06T16:46:16.333Z,68264.22
2023-05-06T16:48:43.297Z,68264.22
2023-05-06T16:51:10.677Z,68264.22
2023-05-06T16:53:37.494Z,68264.22
2023-05-06T16:56:04.473Z,68264.22
2023-05-06T16:58:31.324Z,68264.22
2023-05-06T17:00:58.277Z,68264.22
2023-05-06T17:03:25.277Z,68264.22
2023-05-06T17:05:52.144Z,68264.22
2023-05-06T17:08:18.993Z,68264.22
2023-05-06T17:10:46.271Z,68264.22
2023-05-06T17:13:13.165Z,68264.22
2023-05-06T17:15:40.128Z,68264.22
2023-05-06T17:18:06.979Z,68264.22
2023-05-06T17:20:47.606Z,68264.22
2023-05-06T17:23:20.607Z,68264.22
2023-05-06T17:25:47.404Z,68264.22
2023-05-06T17:28:15.180Z,68264.22
2023-05-06T17:30:43.222Z,68264.22
2023-05-06T17:33:10.072Z,68264.22
2023-05-06T17:35:36.939Z,68264.22
2023-05-06T17:38:03.823Z,68264.22
2023-05-06T17:40:30.603Z,68264.22
2023-05-06T17:42:57.431Z,68264.22
2023-05-06T17:45:25.499Z,68264.22
2023-05-06T17:47:52.384Z,68264.22
2023-05-06T17:50:19.252Z,68264.22
2023-05-06T17:52:49.121Z,68264.22
2023-05-06T17:55:17.385Z,68264.22
2023-05-06T17:57:44.588Z,68264.22
2023-05-06T18:00:12.026Z,68264.22
2023-05-06T18:02:39.294Z,68264.22
2023-05-06T18:05:06.780Z,68264.22
2023-05-06T18:07:37.489Z,68264.22
2023-05-06T18:10:04.854Z,68264.22
2023-05-06T18:12:32.212Z,68264.22
2023-05-06T18:14:59.125Z,68264.22
2023-05-06T18:17:26.153Z,68264.22
2023-05-06T18:19:53.094Z,68264.22
2023-05-06T18:22:19.944Z,68264.22
2023-05-06T18:24:46.827Z,68264.22
2023-05-06T18:27:13.752Z,68264.22
2023-05-06T18:29:41.477Z,68264.22
2023-05-06T18:32:08.590Z,68264.22
2023-05-06T18:34:35.869Z,68264.22
2023-05-06T18:37:02.713Z,68264.22
2023-05-06T18:39:29.581Z,68264.22
2023-05-06T18:41:56.419Z,68264.22
2023-05-06T18:44:23.244Z,68264.22
2023-05-06T18:46:50.156Z,68264.22
2023-05-06T18:49:17.012Z,68264.22
2023-05-06T18:51:43.951Z,68264.22
2023-05-06T18:54:10.889Z,68264.22
2023-05-06T18:56:38.234Z,68264.22
2023-05-06T18:59:05.201Z,68264.22
2023-05-06T19:01:32.280Z,68264.22
2023-05-06T19:03:59.632Z,68264.22
2023-05-06T19:06:26.459Z,68264.22
2023-05-06T19:08:53.824Z,68264.22
2023-05-06T19:11:21.432Z,68264.22
2023-05-06T19:13:50.218Z,68264.22
2023-05-06T19:16:17.096Z,68264.22
2023-05-06T19:18:44.336Z,68264.22
2023-05-06T19:21:12.778Z,68264.22
2023-05-06T19:23:39.703Z,68264.22
2023-05-06T19:26:07.320Z,68264.22
2023-05-06T19:28:34.505Z,68264.22
2023-05-06T19:31:01.882Z,68264.22
2023-05-06T19:33:28.964Z,68264.22
2023-05-06T19:35:55.866Z,68264.22
2023-05-06T19:38:22.808Z,68264.22
2023-05-06T19:40:49.736Z,68264.22
2023-05-06T19:43:16.847Z,68264.22
2023-05-06T19:45:43.670Z,68264.22
2023-05-06T19:48:10.597Z,68264.22
2023-05-06T19:50:37.521Z,68264.22
2023-05-06T19:53:04.473Z,68264.22
2023-05-06T19:55:31.852Z,68264.22
2023-05-06T19:57:58.930Z,68264.22
2023-05-06T20:00:28.229Z,68264.22
2023-05-06T20:02:57.573Z,68264.22
2023-05-06T20:05:29.763Z,68264.22
2023-05-06T20:07:57.059Z,68264.22
2023-05-06T20:10:24.146Z,68264.22
2023-05-06T20:12:51.049Z,68264.22
2023-05-06T20:15:18.069Z,68264.22
2023-05-06T20:17:44.944Z,68264.22
2023-05-06T20:20:12.299Z,68264.22
2023-05-06T20:22:40.643Z,68264.22
2023-05-06T20:25:13.313Z,68264.22
2023-05-06T20:27:40.791Z,68264.22
2023-05-06T20:30:09.793Z,68264.22
2023-05-06T20:32:37.892Z,68264.22
2023-05-06T20:35:06.490Z,68264.22
2023-05-06T20:37:36.662Z,68264.22
2023-05-06T20:40:05.933Z,68264.22
2023-05-06T20:42:35.084Z,68264.22
2023-05-06T20:45:02.029Z,68264.22
2023-05-06T20:47:28.845Z,68264.22
2023-05-06T20:49:55.962Z,68264.22
2023-05-06T20:52:22.854Z,68264.22
2023-05-06T20:54:49.708Z,68264.22
2023-05-06T20:57:17.612Z,68264.22
2023-05-06T20:59:44.899Z,68264.22
2023-05-06T21:02:11.739Z,68264.22
2023-05-06T21:04:38.813Z,68264.22
2023-05-06T21:07:05.734Z,68264.22
2023-05-06T21:09:32.688Z,68264.22
2023-05-06T21:11:59.781Z,68264.22
2023-05-06T21:14:27.714Z,68264.22
2023-05-06T21:16:54.747Z,68264.22
2023-05-06T21:19:36.459Z,68264.22
2023-05-06T21:22:03.502Z,68264.22
2023-05-06T21:24:31.338Z,68264.22
2023-05-06T21:26:58.155Z,68264.22
2023-05-06T21:29:24.960Z,68264.22
2023-05-06T21:31:51.774Z,68264.22
2023-05-06T21:34:18.623Z,68264.22
2023-05-06T21:36:45.461Z,68264.22
2023-05-06T21:39:14.250Z,68264.22
2023-05-06T21:41:41.132Z,68264.22
2023-05-06T21:44:09.600Z,68264.22
2023-05-06T21:46:38.082Z,68264.22
2023-05-06T21:49:05.355Z,68264.22
2023-05-06T21:51:34.711Z,68264.22
2023-05-06T21:54:02.202Z,68264.22
2023-05-06T21:56:29.298Z,68264.22
2023-05-06T21:58:56.277Z,68264.22
2023-05-06T22:01:26.329Z,68264.22
2023-05-06T22:03:54.239Z,68264.22
2023-05-06T22:06:21.494Z,68264.22
2023-05-06T22:08:48.375Z,68264.22
2023-05-06T22:11:15.405Z,68264.22
2023-05-06T22:13:42.236Z,68264.22
2023-05-06T22:16:10.015Z,68264.22
2023-05-06T22:18:41.762Z,68264.22
2023-05-06T22:21:09.911Z,68264.22
2023-05-06T22:23:36.971Z,68264.22
2023-05-06T22:26:03.812Z,68264.22
2023-05-06T22:28:30.942Z,68264.22
2023-05-06T22:30:57.805Z,68264.22
2023-05-06T22:33:26.553Z,68264.22
2023-05-06T22:35:53.622Z,68264.22
2023-05-06T22:38:20.538Z,68264.22
2023-05-06T22:40:47.436Z,68264.22
2023-05-06T22:43:14.248Z,68264.22
2023-05-06T22:45:41.099Z,68264.22
2023-05-06T22:48:07.955Z,68264.22
2023-05-06T22:50:34.788Z,68264.22
2023-05-06T22:53:10.325Z,68264.22
2023-05-06T22:55:41.104Z,68264.22
2023-05-06T22:58:07.959Z,68264.22
2023-05-06T23:00:34.791Z,68264.22
2023-05-06T23:03:01.718Z,68264.22
2023-05-06T23:05:28.833Z,68264.22
2023-05-06T23:07:55.740Z,68264.22
2023-05-06T23:10:22.654Z,68264.22
2023-05-06T23:12:49.680Z,68264.22
2023-05-06T23:15:16.554Z,68264.22
2023-05-06T23:17:43.396Z,68264.22
2023-05-06T23:20:12.137Z,68264.22
2023-05-06T23:22:38.954Z,68264.22
2023-05-06T23:25:07.959Z,68264.22
2023-05-06T23:27:36.194Z,68264.22
2023-05-06T23:30:03.102Z,68264.22
2023-05-06T23:32:30.007Z,68264.22
2023-05-06T23:34:56.988Z,68264.22
2023-05-06T23:37:26.931Z,68264.22
2023-05-06T23:39:53.789Z,68264.22
2023-05-06T23:42:21.679Z,68264.22
2023-05-06T23:44:48.794Z,68264.22
2023-05-06T23:47:15.557Z,68264.22
2023-05-06T23:49:42.474Z,68264.22
2023-05-06T23:52:09.362Z,68264.22
2023-05-06T23:54:36.172Z,68264.22
2023-05-06T23:57:03.046Z,68264.22
2023-05-06T23:59:32.607Z,68264.22
